sensor_id;sensor_type;location;lat;lon;timestamp;temperature;humidity
68274;SHT30;55104;47.356;19.448;2023-04-01T00:00:32;9.44;92.76
68274;SHT30;55104;47.356;19.448;2023-04-01T00:03:35;9.44;92.71
68274;SHT30;55104;47.356;19.448;2023-04-01T00:06:38;9.46;93.05
68274;SHT30;55104;47.356;19.448;2023-04-01T00:09:40;9.40;93.56
68274;SHT30;55104;47.356;19.448;2023-04-01T00:12:42;9.43;93.15
68274;SHT30;55104;47.356;19.448;2023-04-01T00:15:44;9.38;92.99
68274;SHT30;55104;47.356;19.448;2023-04-01T00:18:47;9.29;93.27
68274;SHT30;55104;47.356;19.448;2023-04-01T00:21:50;9.22;93.46
68274;SHT30;55104;47.356;19.448;2023-04-01T00:24:52;9.19;93.41
68274;SHT30;55104;47.356;19.448;2023-04-01T00:27:54;9.19;93.23
68274;SHT30;55104;47.356;19.448;2023-04-01T00:30:57;9.15;93.56
68274;SHT30;55104;47.356;19.448;2023-04-01T00:33:59;9.21;93.29
68274;SHT30;55104;47.356;19.448;2023-04-01T00:37:01;9.21;93.48
68274;SHT30;55104;47.356;19.448;2023-04-01T00:40:19;9.14;93.46
68274;SHT30;55104;47.356;19.448;2023-04-01T00:43:22;9.11;93.74
68274;SHT30;55104;47.356;19.448;2023-04-01T00:46:25;9.08;93.81
68274;SHT30;55104;47.356;19.448;2023-04-01T00:49:32;9.05;93.81
68274;SHT30;55104;47.356;19.448;2023-04-01T00:52:35;8.98;93.91
68274;SHT30;55104;47.356;19.448;2023-04-01T00:55:41;8.97;93.98
68274;SHT30;55104;47.356;19.448;2023-04-01T00:58:48;8.94;94.24
68274;SHT30;55104;47.356;19.448;2023-04-01T01:01:51;8.87;94.00
68274;SHT30;55104;47.356;19.448;2023-04-01T01:04:53;8.87;93.86
68274;SHT30;55104;47.356;19.448;2023-04-01T01:11:08;8.87;93.66
68274;SHT30;55104;47.356;19.448;2023-04-01T01:21:10;8.73;94.17
68274;SHT30;55104;47.356;19.448;2023-04-01T01:27:34;8.71;94.75
68274;SHT30;55104;47.356;19.448;2023-04-01T01:30:42;8.66;94.89
68274;SHT30;55104;47.356;19.448;2023-04-01T01:37:21;8.61;95.05
68274;SHT30;55104;47.356;19.448;2023-04-01T01:40:26;8.63;95.04
68274;SHT30;55104;47.356;19.448;2023-04-01T01:43:39;8.64;95.20
68274;SHT30;55104;47.356;19.448;2023-04-01T01:46:42;8.59;95.29
68274;SHT30;55104;47.356;19.448;2023-04-01T01:49:45;8.59;95.40
68274;SHT30;55104;47.356;19.448;2023-04-01T01:52:47;8.54;95.40
68274;SHT30;55104;47.356;19.448;2023-04-01T01:55:49;8.59;95.28
68274;SHT30;55104;47.356;19.448;2023-04-01T01:58:55;8.57;95.02
68274;SHT30;55104;47.356;19.448;2023-04-01T02:02:00;8.56;95.35
68274;SHT30;55104;47.356;19.448;2023-04-01T02:05:04;8.60;95.53
68274;SHT30;55104;47.356;19.448;2023-04-01T02:08:17;8.57;94.91
68274;SHT30;55104;47.356;19.448;2023-04-01T02:11:50;8.60;95.23
68274;SHT30;55104;47.356;19.448;2023-04-01T02:15:06;8.53;95.34
68274;SHT30;55104;47.356;19.448;2023-04-01T02:18:11;8.52;95.18
68274;SHT30;55104;47.356;19.448;2023-04-01T02:21:14;8.53;95.08
68274;SHT30;55104;47.356;19.448;2023-04-01T02:24:18;8.49;95.60
68274;SHT30;55104;47.356;19.448;2023-04-01T02:27:24;8.52;95.19
68274;SHT30;55104;47.356;19.448;2023-04-01T02:30:27;8.50;95.24
68274;SHT30;55104;47.356;19.448;2023-04-01T02:33:31;8.47;95.10
68274;SHT30;55104;47.356;19.448;2023-04-01T02:36:35;8.43;95.14
68274;SHT30;55104;47.356;19.448;2023-04-01T02:39:38;8.47;95.03
68274;SHT30;55104;47.356;19.448;2023-04-01T02:42:40;8.49;95.11
68274;SHT30;55104;47.356;19.448;2023-04-01T02:45:43;8.46;95.60
68274;SHT30;55104;47.356;19.448;2023-04-01T02:48:45;8.45;95.29
68274;SHT30;55104;47.356;19.448;2023-04-01T02:51:47;8.54;95.15
68274;SHT30;55104;47.356;19.448;2023-04-01T02:54:49;8.56;95.27
68274;SHT30;55104;47.356;19.448;2023-04-01T02:57:52;8.59;95.43
68274;SHT30;55104;47.356;19.448;2023-04-01T03:00:54;8.49;95.62
68274;SHT30;55104;47.356;19.448;2023-04-01T03:03:57;8.59;95.30
68274;SHT30;55104;47.356;19.448;2023-04-01T03:06:59;8.59;94.91
68274;SHT30;55104;47.356;19.448;2023-04-01T03:10:01;8.53;95.03
68274;SHT30;55104;47.356;19.448;2023-04-01T03:13:03;8.52;94.96
68274;SHT30;55104;47.356;19.448;2023-04-01T03:16:05;8.49;95.65
68274;SHT30;55104;47.356;19.448;2023-04-01T03:19:09;8.45;95.42
68274;SHT30;55104;47.356;19.448;2023-04-01T03:22:11;8.37;95.36
68274;SHT30;55104;47.356;19.448;2023-04-01T03:25:14;8.35;95.13
68274;SHT30;55104;47.356;19.448;2023-04-01T03:28:16;8.37;95.24
68274;SHT30;55104;47.356;19.448;2023-04-01T03:31:19;8.32;95.34
68274;SHT30;55104;47.356;19.448;2023-04-01T03:34:27;8.32;95.33
68274;SHT30;55104;47.356;19.448;2023-04-01T03:37:30;8.30;96.03
68274;SHT30;55104;47.356;19.448;2023-04-01T03:40:32;8.30;95.75
68274;SHT30;55104;47.356;19.448;2023-04-01T03:43:35;8.25;95.80
68274;SHT30;55104;47.356;19.448;2023-04-01T03:46:43;8.22;96.11
68274;SHT30;55104;47.356;19.448;2023-04-01T03:49:45;8.21;96.08
68274;SHT30;55104;47.356;19.448;2023-04-01T03:52:47;8.18;96.11
68274;SHT30;55104;47.356;19.448;2023-04-01T03:55:49;8.19;96.22
68274;SHT30;55104;47.356;19.448;2023-04-01T03:58:53;8.21;96.19
68274;SHT30;55104;47.356;19.448;2023-04-01T04:01:55;8.18;96.29
68274;SHT30;55104;47.356;19.448;2023-04-01T04:04:57;8.21;96.02
68274;SHT30;55104;47.356;19.448;2023-04-01T04:08:02;8.13;95.90
68274;SHT30;55104;47.356;19.448;2023-04-01T04:11:05;8.06;96.01
68274;SHT30;55104;47.356;19.448;2023-04-01T04:14:09;8.08;95.91
68274;SHT30;55104;47.356;19.448;2023-04-01T04:17:11;8.02;95.95
68274;SHT30;55104;47.356;19.448;2023-04-01T04:20:18;7.95;96.16
68274;SHT30;55104;47.356;19.448;2023-04-01T04:23:21;7.91;96.21
68274;SHT30;55104;47.356;19.448;2023-04-01T04:26:23;7.95;96.02
68274;SHT30;55104;47.356;19.448;2023-04-01T04:29:31;7.91;96.44
68274;SHT30;55104;47.356;19.448;2023-04-01T04:32:34;7.91;96.56
68274;SHT30;55104;47.356;19.448;2023-04-01T04:35:37;7.90;96.44
68274;SHT30;55104;47.356;19.448;2023-04-01T04:38:39;7.85;96.30
68274;SHT30;55104;47.356;19.448;2023-04-01T04:41:41;7.90;96.11
68274;SHT30;55104;47.356;19.448;2023-04-01T04:44:43;7.91;96.13
68274;SHT30;55104;47.356;19.448;2023-04-01T04:47:46;7.91;96.31
68274;SHT30;55104;47.356;19.448;2023-04-01T04:50:49;7.92;96.22
68274;SHT30;55104;47.356;19.448;2023-04-01T04:53:53;7.92;96.13
68274;SHT30;55104;47.356;19.448;2023-04-01T04:57:03;7.95;96.36
68274;SHT30;55104;47.356;19.448;2023-04-01T05:00:11;7.98;96.06
68274;SHT30;55104;47.356;19.448;2023-04-01T05:03:33;8.05;95.83
68274;SHT30;55104;47.356;19.448;2023-04-01T05:06:35;8.15;95.82
68274;SHT30;55104;47.356;19.448;2023-04-01T05:09:37;8.29;95.99
68274;SHT30;55104;47.356;19.448;2023-04-01T05:12:39;8.40;95.78
68274;SHT30;55104;47.356;19.448;2023-04-01T05:15:43;8.45;95.43
68274;SHT30;55104;47.356;19.448;2023-04-01T05:18:46;8.47;95.34
68274;SHT30;55104;47.356;19.448;2023-04-01T05:21:48;8.57;95.34
68274;SHT30;55104;47.356;19.448;2023-04-01T05:24:50;8.60;95.10
68274;SHT30;55104;47.356;19.448;2023-04-01T05:27:53;8.67;94.72
68274;SHT30;55104;47.356;19.448;2023-04-01T05:30:58;8.63;94.67
68274;SHT30;55104;47.356;19.448;2023-04-01T05:34:07;8.66;94.72
68274;SHT30;55104;47.356;19.448;2023-04-01T05:37:09;8.68;94.13
68274;SHT30;55104;47.356;19.448;2023-04-01T05:40:12;8.73;94.36
68274;SHT30;55104;47.356;19.448;2023-04-01T05:43:14;8.70;94.21
68274;SHT30;55104;47.356;19.448;2023-04-01T05:46:18;8.78;94.02
68274;SHT30;55104;47.356;19.448;2023-04-01T05:49:26;8.78;93.90
68274;SHT30;55104;47.356;19.448;2023-04-01T05:52:30;8.74;93.99
68274;SHT30;55104;47.356;19.448;2023-04-01T05:55:32;8.77;93.62
68274;SHT30;55104;47.356;19.448;2023-04-01T05:58:37;8.78;93.59
68274;SHT30;55104;47.356;19.448;2023-04-01T06:01:39;8.95;93.02
68274;SHT30;55104;47.356;19.448;2023-04-01T06:04:41;8.94;93.00
68274;SHT30;55104;47.356;19.448;2023-04-01T06:07:44;9.05;92.55
68274;SHT30;55104;47.356;19.448;2023-04-01T06:24:37;9.49;90.88
68274;SHT30;55104;47.356;19.448;2023-04-01T06:31:32;9.58;90.16
68274;SHT30;55104;47.356;19.448;2023-04-01T06:56:46;10.73;86.87
68274;SHT30;55104;47.356;19.448;2023-04-01T06:59:59;10.66;85.33
68274;SHT30;55104;47.356;19.448;2023-04-01T07:03:21;10.64;86.13
68274;SHT30;55104;47.356;19.448;2023-04-01T07:06:43;10.85;86.24
68274;SHT30;55104;47.356;19.448;2023-04-01T07:09:56;10.93;85.45
68274;SHT30;55104;47.356;19.448;2023-04-01T07:13:09;10.84;85.20
68274;SHT30;55104;47.356;19.448;2023-04-01T07:23:29;11.22;84.04
68274;SHT30;55104;47.356;19.448;2023-04-01T07:26:57;11.28;83.43
68274;SHT30;55104;47.356;19.448;2023-04-01T07:30:13;11.42;83.87
68274;SHT30;55104;47.356;19.448;2023-04-01T07:36:45;11.65;82.57
68274;SHT30;55104;47.356;19.448;2023-04-01T07:43:50;11.71;82.19
68274;SHT30;55104;47.356;19.448;2023-04-01T07:53:33;12.08;79.41
68274;SHT30;55104;47.356;19.448;2023-04-01T07:59:42;12.14;76.08
68274;SHT30;55104;47.356;19.448;2023-04-01T08:03:07;12.28;77.02
68274;SHT30;55104;47.356;19.448;2023-04-01T08:10:21;12.69;74.51
68274;SHT30;55104;47.356;19.448;2023-04-01T08:24:43;12.80;74.23
68274;SHT30;55104;47.356;19.448;2023-04-01T08:31:20;13.14;74.10
68274;SHT30;55104;47.356;19.448;2023-04-01T08:34:31;13.29;72.56
68274;SHT30;55104;47.356;19.448;2023-04-01T08:37:39;13.29;71.96
68274;SHT30;55104;47.356;19.448;2023-04-01T08:40:55;13.21;70.47
68274;SHT30;55104;47.356;19.448;2023-04-01T08:47:54;13.56;70.67
68274;SHT30;55104;47.356;19.448;2023-04-01T09:11:38;13.39;68.26
68274;SHT30;55104;47.356;19.448;2023-04-01T09:28:16;12.83;69.12
68274;SHT30;55104;47.356;19.448;2023-04-01T09:49:08;14.21;66.67
68274;SHT30;55104;47.356;19.448;2023-04-01T09:56:03;14.14;64.63
68274;SHT30;55104;47.356;19.448;2023-04-01T09:59:46;14.01;66.45
68274;SHT30;55104;47.356;19.448;2023-04-01T10:27:36;14.81;63.98
68274;SHT30;55104;47.356;19.448;2023-04-01T10:31:19;14.97;62.95
68274;SHT30;55104;47.356;19.448;2023-04-01T10:45:35;14.32;64.45
68274;SHT30;55104;47.356;19.448;2023-04-01T11:17:05;14.07;66.68
68274;SHT30;55104;47.356;19.448;2023-04-01T11:20:45;13.79;67.06
68274;SHT30;55104;47.356;19.448;2023-04-01T11:30:49;13.74;66.81
68274;SHT30;55104;47.356;19.448;2023-04-01T11:37:51;13.49;67.99
68274;SHT30;55104;47.356;19.448;2023-04-01T11:48:41;13.56;67.21
68274;SHT30;55104;47.356;19.448;2023-04-01T11:52:15;13.79;67.02
68274;SHT30;55104;47.356;19.448;2023-04-01T12:02:25;14.20;65.56
68274;SHT30;55104;47.356;19.448;2023-04-01T12:15:51;14.32;64.50
68274;SHT30;55104;47.356;19.448;2023-04-01T12:19:13;14.45;64.47
68274;SHT30;55104;47.356;19.448;2023-04-01T12:26:19;13.87;66.02
68274;SHT30;55104;47.356;19.448;2023-04-01T12:33:23;14.04;66.05
68274;SHT30;55104;47.356;19.448;2023-04-01T12:36:50;14.11;66.35
68274;SHT30;55104;47.356;19.448;2023-04-01T12:50:42;14.24;65.65
68274;SHT30;55104;47.356;19.448;2023-04-01T13:30:56;15.35;60.39
68274;SHT30;55104;47.356;19.448;2023-04-01T13:34:13;15.73;60.55
68274;SHT30;55104;47.356;19.448;2023-04-01T13:41:28;15.78;56.61
68274;SHT30;55104;47.356;19.448;2023-04-01T13:44:49;15.52;57.52
68274;SHT30;55104;47.356;19.448;2023-04-01T14:11:17;15.96;56.23
68274;SHT30;55104;47.356;19.448;2023-04-01T14:14:51;16.06;54.28
68274;SHT30;55104;47.356;19.448;2023-04-01T14:25:48;16.20;54.68
68274;SHT30;55104;47.356;19.448;2023-04-01T14:32:39;16.07;55.16
68274;SHT30;55104;47.356;19.448;2023-04-01T14:51:45;15.73;54.18
68274;SHT30;55104;47.356;19.448;2023-04-01T14:54:49;15.78;54.75
68274;SHT30;55104;47.356;19.448;2023-04-01T14:58:12;15.78;56.09
68274;SHT30;55104;47.356;19.448;2023-04-01T15:01:37;15.80;55.40
68274;SHT30;55104;47.356;19.448;2023-04-01T15:04:50;15.82;55.89
68274;SHT30;55104;47.356;19.448;2023-04-01T15:11:23;15.55;57.28
68274;SHT30;55104;47.356;19.448;2023-04-01T15:21:24;15.44;56.84
68274;SHT30;55104;47.356;19.448;2023-04-01T15:24:49;15.42;57.49
68274;SHT30;55104;47.356;19.448;2023-04-01T15:28:29;15.21;56.88
68274;SHT30;55104;47.356;19.448;2023-04-01T15:31:53;15.21;57.78
68274;SHT30;55104;47.356;19.448;2023-04-01T15:35:14;15.27;57.89
68274;SHT30;55104;47.356;19.448;2023-04-01T15:48:25;14.96;57.99
68274;SHT30;55104;47.356;19.448;2023-04-01T15:58:42;14.87;58.65
68274;SHT30;55104;47.356;19.448;2023-04-01T16:02:18;14.69;59.48
68274;SHT30;55104;47.356;19.448;2023-04-01T16:19:19;14.06;60.92
68274;SHT30;55104;47.356;19.448;2023-04-01T16:25:39;13.86;61.65
68274;SHT30;55104;47.356;19.448;2023-04-01T16:33:31;13.71;61.56
68274;SHT30;55104;47.356;19.448;2023-04-01T16:42:43;13.60;61.74
68274;SHT30;55104;47.356;19.448;2023-04-01T16:45:54;13.53;61.96
68274;SHT30;55104;47.356;19.448;2023-04-01T16:52:30;13.53;62.09
68274;SHT30;55104;47.356;19.448;2023-04-01T16:55:50;13.42;62.79
68274;SHT30;55104;47.356;19.448;2023-04-01T16:59:02;13.29;62.99
68274;SHT30;55104;47.356;19.448;2023-04-01T17:05:13;13.14;63.79
68274;SHT30;55104;47.356;19.448;2023-04-01T17:11:56;12.97;64.29
68274;SHT30;55104;47.356;19.448;2023-04-01T17:21:30;12.61;65.23
68274;SHT30;55104;47.356;19.448;2023-04-01T17:31:47;12.26;67.23
68274;SHT30;55104;47.356;19.448;2023-04-01T17:35:00;12.11;67.66
68274;SHT30;55104;47.356;19.448;2023-04-01T17:41:51;11.95;69.05
68274;SHT30;55104;47.356;19.448;2023-04-01T17:45:04;11.86;69.43
68274;SHT30;55104;47.356;19.448;2023-04-01T17:58:20;11.40;71.24
68274;SHT30;55104;47.356;19.448;2023-04-01T18:08:14;11.11;72.77
68274;SHT30;55104;47.356;19.448;2023-04-01T18:15:05;10.90;73.20
68274;SHT30;55104;47.356;19.448;2023-04-01T18:21:48;10.76;74.03
68274;SHT30;55104;47.356;19.448;2023-04-01T18:25:00;10.77;73.99
68274;SHT30;55104;47.356;19.448;2023-04-01T18:31:24;10.61;75.09
68274;SHT30;55104;47.356;19.448;2023-04-01T18:34:59;10.61;75.41
68274;SHT30;55104;47.356;19.448;2023-04-01T18:38:38;10.59;75.67
68274;SHT30;55104;47.356;19.448;2023-04-01T18:41:54;10.50;76.16
68274;SHT30;55104;47.356;19.448;2023-04-01T18:45:26;10.50;76.25
68274;SHT30;55104;47.356;19.448;2023-04-01T18:55:48;10.49;75.09
68274;SHT30;55104;47.356;19.448;2023-04-01T19:02:34;10.45;74.87
68274;SHT30;55104;47.356;19.448;2023-04-01T19:05:40;10.42;74.78
68274;SHT30;55104;47.356;19.448;2023-04-01T19:08:44;10.35;74.65
68274;SHT30;55104;47.356;19.448;2023-04-01T19:18:50;10.18;75.77
68274;SHT30;55104;47.356;19.448;2023-04-01T19:31:40;9.94;76.36
68274;SHT30;55104;47.356;19.448;2023-04-01T19:41:45;9.70;77.60
68274;SHT30;55104;47.356;19.448;2023-04-01T19:58:36;9.18;79.57
68274;SHT30;55104;47.356;19.448;2023-04-01T20:01:50;9.08;79.91
68274;SHT30;55104;47.356;19.448;2023-04-01T20:04:55;9.01;80.20
68274;SHT30;55104;47.356;19.448;2023-04-01T20:12:01;8.71;82.11
68274;SHT30;55104;47.356;19.448;2023-04-01T20:14:47;8.63;82.46
68274;SHT30;55104;47.356;19.448;2023-04-01T20:17:52;8.53;82.24
68274;SHT30;55104;47.356;19.448;2023-04-01T20:20:59;8.57;82.45
68274;SHT30;55104;47.356;19.448;2023-04-01T20:24:17;8.49;82.38
68274;SHT30;55104;47.356;19.448;2023-04-01T20:27:26;8.42;82.56
68274;SHT30;55104;47.356;19.448;2023-04-01T20:47:17;7.94;83.61
68274;SHT30;55104;47.356;19.448;2023-04-01T20:53:50;7.87;84.31
68274;SHT30;55104;47.356;19.448;2023-04-01T21:03:25;7.54;84.68
68274;SHT30;55104;47.356;19.448;2023-04-01T21:10:11;7.45;85.64
68274;SHT30;55104;47.356;19.448;2023-04-01T21:23:49;7.22;86.06
68274;SHT30;55104;47.356;19.448;2023-04-01T21:40:44;6.91;86.37
68274;SHT30;55104;47.356;19.448;2023-04-01T21:47:30;6.90;86.94
68274;SHT30;55104;47.356;19.448;2023-04-01T21:51:00;6.95;86.64
68274;SHT30;55104;47.356;19.448;2023-04-01T22:08:20;6.84;86.75
68274;SHT30;55104;47.356;19.448;2023-04-01T22:12:02;6.71;87.38
68274;SHT30;55104;47.356;19.448;2023-04-01T22:18:46;6.71;87.18
68274;SHT30;55104;47.356;19.448;2023-04-01T22:22:01;6.66;87.19
68274;SHT30;55104;47.356;19.448;2023-04-01T22:25:14;6.60;87.25
68274;SHT30;55104;47.356;19.448;2023-04-01T22:28:31;6.54;87.37
68274;SHT30;55104;47.356;19.448;2023-04-01T22:31:54;6.50;87.56
68274;SHT30;55104;47.356;19.448;2023-04-01T22:48:42;6.35;87.23
68274;SHT30;55104;47.356;19.448;2023-04-01T22:55:00;6.32;87.66
68274;SHT30;55104;47.356;19.448;2023-04-01T22:58:07;6.33;87.49
68274;SHT30;55104;47.356;19.448;2023-04-01T23:01:20;6.28;87.20
68274;SHT30;55104;47.356;19.448;2023-04-01T23:04:29;6.21;87.64
68274;SHT30;55104;47.356;19.448;2023-04-01T23:07:54;6.14;88.14
68274;SHT30;55104;47.356;19.448;2023-04-01T23:11:04;6.05;88.35
68274;SHT30;55104;47.356;19.448;2023-04-01T23:24:49;5.93;88.85
68274;SHT30;55104;47.356;19.448;2023-04-01T23:34:35;5.88;88.02
68274;SHT30;55104;47.356;19.448;2023-04-01T23:37:37;5.83;88.52
68274;SHT30;55104;47.356;19.448;2023-04-01T23:40:40;5.83;88.87
68274;SHT30;55104;47.356;19.448;2023-04-01T23:43:43;5.86;88.90
68274;SHT30;55104;47.356;19.448;2023-04-01T23:46:47;5.88;89.26
68274;SHT30;55104;47.356;19.448;2023-04-01T23:49:56;5.95;89.34
68274;SHT30;55104;47.356;19.448;2023-04-01T23:53:03;6.04;88.86
68274;SHT30;55104;47.356;19.448;2023-04-01T23:56:06;6.08;88.12
68274;SHT30;55104;47.356;19.448;2023-04-01T23:59:19;6.12;87.78
